sensor_id;sensor_type;location;lat;lon;timestamp;P1;durP1;ratioP1;P2;durP2;ratioP2
27428;SDS011;14881;48.092;11.574;2023-07-24T00:02:04;15.55;;;10.50;;
27428;SDS011;14881;48.092;11.574;2023-07-24T00:04:32;16.98;;;10.27;;
27428;SDS011;14881;48.092;11.574;2023-07-24T00:07:00;15.35;;;11.20;;
27428;SDS011;14881;48.092;11.574;2023-07-24T00:09:28;14.07;;;10.40;;
27428;SDS011;14881;48.092;11.574;2023-07-24T00:11:56;17.42;;;11.60;;
27428;SDS011;14881;48.092;11.574;2023-07-24T00:14:25;14.63;;;10.68;;
27428;SDS011;14881;48.092;11.574;2023-07-24T00:16:53;15.95;;;11.05;;
27428;SDS011;14881;48.092;11.574;2023-07-24T00:19:21;15.35;;;10.73;;
27428;SDS011;14881;48.092;11.574;2023-07-24T00:21:48;14.88;;;10.23;;
27428;SDS011;14881;48.092;11.574;2023-07-24T00:24:16;14.65;;;10.57;;
27428;SDS011;14881;48.092;11.574;2023-07-24T00:26:44;14.10;;;10.07;;
27428;SDS011;14881;48.092;11.574;2023-07-24T00:29:12;15.88;;;10.65;;
27428;SDS011;14881;48.092;11.574;2023-07-24T00:31:41;17.38;;;10.80;;
27428;SDS011;14881;48.092;11.574;2023-07-24T00:34:08;15.43;;;10.05;;
27428;SDS011;14881;48.092;11.574;2023-07-24T00:36:36;16.67;;;11.02;;
27428;SDS011;14881;48.092;11.574;2023-07-24T00:39:04;16.38;;;10.35;;
27428;SDS011;14881;48.092;11.574;2023-07-24T00:41:32;17.08;;;11.00;;
27428;SDS011;14881;48.092;11.574;2023-07-24T00:44:00;13.38;;;10.25;;
27428;SDS011;14881;48.092;11.574;2023-07-24T00:46:28;16.55;;;10.60;;
27428;SDS011;14881;48.092;11.574;2023-07-24T00:49:00;15.30;;;10.68;;
27428;SDS011;14881;48.092;11.574;2023-07-24T00:51:30;17.17;;;10.00;;
27428;SDS011;14881;48.092;11.574;2023-07-24T00:53:59;15.27;;;10.55;;
27428;SDS011;14881;48.092;11.574;2023-07-24T00:56:28;14.45;;;9.80;;
27428;SDS011;14881;48.092;11.574;2023-07-24T00:58:58;14.63;;;10.20;;
27428;SDS011;14881;48.092;11.574;2023-07-24T01:01:26;15.75;;;9.50;;
27428;SDS011;14881;48.092;11.574;2023-07-24T01:03:54;15.13;;;10.25;;
27428;SDS011;14881;48.092;11.574;2023-07-24T01:06:25;16.20;;;10.10;;
27428;SDS011;14881;48.092;11.574;2023-07-24T01:08:53;13.13;;;9.82;;
27428;SDS011;14881;48.092;11.574;2023-07-24T01:11:23;14.73;;;9.63;;
27428;SDS011;14881;48.092;11.574;2023-07-24T01:13:56;14.43;;;10.20;;
27428;SDS011;14881;48.092;11.574;2023-07-24T01:16:26;13.05;;;9.68;;
27428;SDS011;14881;48.092;11.574;2023-07-24T01:19:00;17.57;;;10.47;;
27428;SDS011;14881;48.092;11.574;2023-07-24T01:21:33;13.40;;;9.48;;
27428;SDS011;14881;48.092;11.574;2023-07-24T01:24:23;14.90;;;9.55;;
27428;SDS011;14881;48.092;11.574;2023-07-24T01:26:59;16.20;;;10.18;;
27428;SDS011;14881;48.092;11.574;2023-07-24T01:29:27;14.65;;;9.60;;
27428;SDS011;14881;48.092;11.574;2023-07-24T01:31:55;15.00;;;9.95;;
27428;SDS011;14881;48.092;11.574;2023-07-24T01:34:23;13.93;;;10.15;;
27428;SDS011;14881;48.092;11.574;2023-07-24T01:36:51;14.93;;;10.15;;
27428;SDS011;14881;48.092;11.574;2023-07-24T01:39:18;13.57;;;9.65;;
27428;SDS011;14881;48.092;11.574;2023-07-24T01:41:47;14.43;;;10.02;;
27428;SDS011;14881;48.092;11.574;2023-07-24T01:44:19;13.77;;;9.80;;
27428;SDS011;14881;48.092;11.574;2023-07-24T01:46:46;15.32;;;10.02;;
27428;SDS011;14881;48.092;11.574;2023-07-24T01:49:14;14.32;;;9.93;;
27428;SDS011;14881;48.092;11.574;2023-07-24T01:51:42;12.50;;;8.98;;
27428;SDS011;14881;48.092;11.574;2023-07-24T01:54:10;14.38;;;9.95;;
27428;SDS011;14881;48.092;11.574;2023-07-24T01:56:37;14.35;;;10.88;;
27428;SDS011;14881;48.092;11.574;2023-07-24T01:59:06;14.50;;;9.45;;
27428;SDS011;14881;48.092;11.574;2023-07-24T02:01:35;13.82;;;9.90;;
27428;SDS011;14881;48.092;11.574;2023-07-24T02:04:03;15.02;;;10.02;;
27428;SDS011;14881;48.092;11.574;2023-07-24T02:06:31;14.02;;;10.10;;
27428;SDS011;14881;48.092;11.574;2023-07-24T02:08:59;12.93;;;9.30;;
27428;SDS011;14881;48.092;11.574;2023-07-24T02:11:27;12.23;;;9.05;;
27428;SDS011;14881;48.092;11.574;2023-07-24T02:13:54;14.88;;;9.93;;
27428;SDS011;14881;48.092;11.574;2023-07-24T02:16:22;14.10;;;9.73;;
27428;SDS011;14881;48.092;11.574;2023-07-24T02:18:51;15.85;;;9.93;;
27428;SDS011;14881;48.092;11.574;2023-07-24T02:21:19;11.77;;;8.82;;
27428;SDS011;14881;48.092;11.574;2023-07-24T02:23:47;16.85;;;9.80;;
27428;SDS011;14881;48.092;11.574;2023-07-24T02:26:15;16.20;;;10.77;;
27428;SDS011;14881;48.092;11.574;2023-07-24T02:28:42;13.95;;;9.88;;
27428;SDS011;14881;48.092;11.574;2023-07-24T02:31:10;15.15;;;9.88;;
27428;SDS011;14881;48.092;11.574;2023-07-24T02:33:38;12.80;;;8.95;;
27428;SDS011;14881;48.092;11.574;2023-07-24T02:36:07;11.80;;;9.10;;
27428;SDS011;14881;48.092;11.574;2023-07-24T02:38:35;13.23;;;9.35;;
27428;SDS011;14881;48.092;11.574;2023-07-24T02:41:03;14.20;;;10.95;;
27428;SDS011;14881;48.092;11.574;2023-07-24T02:43:31;14.70;;;10.75;;
27428;SDS011;14881;48.092;11.574;2023-07-24T02:46:00;19.13;;;10.57;;
27428;SDS011;14881;48.092;11.574;2023-07-24T02:48:29;17.65;;;11.68;;
27428;SDS011;14881;48.092;11.574;2023-07-24T02:50:56;16.55;;;10.00;;
27428;SDS011;14881;48.092;11.574;2023-07-24T02:53:25;14.23;;;10.77;;
27428;SDS011;14881;48.092;11.574;2023-07-24T02:55:53;12.65;;;9.70;;
27428;SDS011;14881;48.092;11.574;2023-07-24T02:58:21;15.57;;;10.48;;
27428;SDS011;14881;48.092;11.574;2023-07-24T03:00:49;15.32;;;10.07;;
27428;SDS011;14881;48.092;11.574;2023-07-24T03:03:17;14.50;;;9.73;;
27428;SDS011;14881;48.092;11.574;2023-07-24T03:05:44;14.80;;;9.85;;
27428;SDS011;14881;48.092;11.574;2023-07-24T03:08:12;16.08;;;10.80;;
27428;SDS011;14881;48.092;11.574;2023-07-24T03:10:42;14.93;;;10.27;;
27428;SDS011;14881;48.092;11.574;2023-07-24T03:13:09;23.05;;;11.02;;
27428;SDS011;14881;48.092;11.574;2023-07-24T03:15:36;18.55;;;11.57;;
27428;SDS011;14881;48.092;11.574;2023-07-24T03:18:04;15.73;;;11.32;;
27428;SDS011;14881;48.092;11.574;2023-07-24T03:20:32;18.48;;;12.35;;
27428;SDS011;14881;48.092;11.574;2023-07-24T03:22:59;19.48;;;12.75;;
27428;SDS011;14881;48.092;11.574;2023-07-24T03:25:27;19.17;;;12.98;;
27428;SDS011;14881;48.092;11.574;2023-07-24T03:28:00;18.33;;;12.57;;
27428;SDS011;14881;48.092;11.574;2023-07-24T03:30:28;17.52;;;12.32;;
27428;SDS011;14881;48.092;11.574;2023-07-24T03:32:56;20.60;;;13.82;;
27428;SDS011;14881;48.092;11.574;2023-07-24T03:35:24;19.10;;;13.00;;
27428;SDS011;14881;48.092;11.574;2023-07-24T03:37:52;18.45;;;12.60;;
27428;SDS011;14881;48.092;11.574;2023-07-24T03:40:20;22.80;;;14.07;;
27428;SDS011;14881;48.092;11.574;2023-07-24T03:42:48;17.73;;;12.68;;
27428;SDS011;14881;48.092;11.574;2023-07-24T03:45:17;17.05;;;12.93;;
27428;SDS011;14881;48.092;11.574;2023-07-24T03:47:45;22.80;;;14.05;;
27428;SDS011;14881;48.092;11.574;2023-07-24T03:50:12;21.70;;;13.63;;
27428;SDS011;14881;48.092;11.574;2023-07-24T03:52:40;20.38;;;13.90;;
27428;SDS011;14881;48.092;11.574;2023-07-24T03:55:08;20.73;;;14.40;;
27428;SDS011;14881;48.092;11.574;2023-07-24T03:57:37;18.67;;;13.52;;
27428;SDS011;14881;48.092;11.574;2023-07-24T04:00:05;20.35;;;14.02;;
27428;SDS011;14881;48.092;11.574;2023-07-24T04:02:35;20.23;;;14.40;;
27428;SDS011;14881;48.092;11.574;2023-07-24T04:05:03;20.80;;;13.90;;
27428;SDS011;14881;48.092;11.574;2023-07-24T04:07:31;17.55;;;13.75;;
27428;SDS011;14881;48.092;11.574;2023-07-24T04:09:58;21.80;;;14.05;;
27428;SDS011;14881;48.092;11.574;2023-07-24T04:12:26;18.33;;;13.57;;
27428;SDS011;14881;48.092;11.574;2023-07-24T04:14:55;17.50;;;12.90;;
27428;SDS011;14881;48.092;11.574;2023-07-24T04:17:23;18.00;;;12.57;;
27428;SDS011;14881;48.092;11.574;2023-07-24T04:19:52;17.23;;;12.90;;
27428;SDS011;14881;48.092;11.574;2023-07-24T04:22:20;20.50;;;14.07;;
27428;SDS011;14881;48.092;11.574;2023-07-24T04:24:48;20.10;;;14.88;;
27428;SDS011;14881;48.092;11.574;2023-07-24T04:27:16;18.27;;;12.70;;
27428;SDS011;14881;48.092;11.574;2023-07-24T04:29:43;20.45;;;12.77;;
27428;SDS011;14881;48.092;11.574;2023-07-24T04:32:11;22.05;;;13.82;;
27428;SDS011;14881;48.092;11.574;2023-07-24T04:34:39;17.27;;;12.75;;
27428;SDS011;14881;48.092;11.574;2023-07-24T04:37:08;19.00;;;13.43;;
27428;SDS011;14881;48.092;11.574;2023-07-24T04:39:38;17.52;;;13.10;;
27428;SDS011;14881;48.092;11.574;2023-07-24T04:42:06;21.38;;;12.93;;
27428;SDS011;14881;48.092;11.574;2023-07-24T04:44:34;18.70;;;12.60;;
27428;SDS011;14881;48.092;11.574;2023-07-24T04:47:02;21.23;;;13.55;;
27428;SDS011;14881;48.092;11.574;2023-07-24T04:49:30;18.88;;;13.10;;
27428;SDS011;14881;48.092;11.574;2023-07-24T04:51:59;19.70;;;13.45;;
27428;SDS011;14881;48.092;11.574;2023-07-24T04:54:28;17.38;;;12.02;;
27428;SDS011;14881;48.092;11.574;2023-07-24T04:56:56;17.98;;;12.55;;
27428;SDS011;14881;48.092;11.574;2023-07-24T04:59:23;18.08;;;12.20;;
27428;SDS011;14881;48.092;11.574;2023-07-24T05:01:51;18.92;;;12.40;;
27428;SDS011;14881;48.092;11.574;2023-07-24T05:04:19;19.42;;;12.48;;
27428;SDS011;14881;48.092;11.574;2023-07-24T05:06:47;19.45;;;13.32;;
27428;SDS011;14881;48.092;11.574;2023-07-24T05:09:14;16.58;;;12.00;;
27428;SDS011;14881;48.092;11.574;2023-07-24T05:11:44;18.80;;;12.52;;
27428;SDS011;14881;48.092;11.574;2023-07-24T05:14:11;16.80;;;12.32;;
27428;SDS011;14881;48.092;11.574;2023-07-24T05:16:39;18.45;;;12.57;;
27428;SDS011;14881;48.092;11.574;2023-07-24T05:19:07;16.15;;;12.32;;
27428;SDS011;14881;48.092;11.574;2023-07-24T05:21:35;18.73;;;12.52;;
27428;SDS011;14881;48.092;11.574;2023-07-24T05:24:03;18.02;;;12.10;;
27428;SDS011;14881;48.092;11.574;2023-07-24T05:26:31;19.40;;;13.43;;
27428;SDS011;14881;48.092;11.574;2023-07-24T05:29:00;19.33;;;12.52;;
27428;SDS011;14881;48.092;11.574;2023-07-24T05:31:28;18.02;;;12.40;;
27428;SDS011;14881;48.092;11.574;2023-07-24T05:33:55;17.70;;;12.25;;
27428;SDS011;14881;48.092;11.574;2023-07-24T05:36:23;18.73;;;12.63;;
27428;SDS011;14881;48.092;11.574;2023-07-24T05:38:51;16.52;;;12.48;;
27428;SDS011;14881;48.092;11.574;2023-07-24T05:41:19;17.02;;;11.30;;
27428;SDS011;14881;48.092;11.574;2023-07-24T05:43:46;17.90;;;11.57;;
27428;SDS011;14881;48.092;11.574;2023-07-24T05:46:16;17.85;;;12.68;;
27428;SDS011;14881;48.092;11.574;2023-07-24T05:48:43;15.52;;;12.18;;
27428;SDS011;14881;48.092;11.574;2023-07-24T05:51:11;17.10;;;12.07;;
27428;SDS011;14881;48.092;11.574;2023-07-24T05:53:39;15.63;;;11.45;;
27428;SDS011;14881;48.092;11.574;2023-07-24T05:56:07;18.27;;;12.32;;
27428;SDS011;14881;48.092;11.574;2023-07-24T05:58:34;17.15;;;12.55;;
27428;SDS011;14881;48.092;11.574;2023-07-24T06:01:02;14.30;;;10.75;;
27428;SDS011;14881;48.092;11.574;2023-07-24T06:03:32;18.30;;;12.27;;
27428;SDS011;14881;48.092;11.574;2023-07-24T06:06:00;15.50;;;11.00;;
27428;SDS011;14881;48.092;11.574;2023-07-24T06:08:28;16.30;;;11.25;;
27428;SDS011;14881;48.092;11.574;2023-07-24T06:10:55;14.80;;;11.02;;
27428;SDS011;14881;48.092;11.574;2023-07-24T06:13:23;14.77;;;11.45;;
27428;SDS011;14881;48.092;11.574;2023-07-24T06:15:51;16.23;;;11.13;;
27428;SDS011;14881;48.092;11.574;2023-07-24T06:18:19;17.33;;;11.07;;
27428;SDS011;14881;48.092;11.574;2023-07-24T06:20:51;15.25;;;11.57;;
27428;SDS011;14881;48.092;11.574;2023-07-24T06:23:20;16.15;;;11.25;;
27428;SDS011;14881;48.092;11.574;2023-07-24T06:25:47;14.88;;;10.50;;
27428;SDS011;14881;48.092;11.574;2023-07-24T06:28:15;13.93;;;10.93;;
27428;SDS011;14881;48.092;11.574;2023-07-24T06:30:43;13.80;;;11.45;;
27428;SDS011;14881;48.092;11.574;2023-07-24T06:33:10;13.88;;;10.50;;
27428;SDS011;14881;48.092;11.574;2023-07-24T06:35:38;14.52;;;11.07;;
27428;SDS011;14881;48.092;11.574;2023-07-24T06:38:07;16.13;;;10.60;;
27428;SDS011;14881;48.092;11.574;2023-07-24T06:40:35;14.63;;;11.05;;
27428;SDS011;14881;48.092;11.574;2023-07-24T06:43:03;18.27;;;11.30;;
27428;SDS011;14881;48.092;11.574;2023-07-24T06:45:31;16.73;;;11.75;;
27428;SDS011;14881;48.092;11.574;2023-07-24T06:47:58;14.73;;;10.77;;
27428;SDS011;14881;48.092;11.574;2023-07-24T06:50:26;14.55;;;11.18;;
27428;SDS011;14881;48.092;11.574;2023-07-24T06:52:54;15.02;;;10.80;;
27428;SDS011;14881;48.092;11.574;2023-07-24T06:55:23;16.08;;;11.02;;
27428;SDS011;14881;48.092;11.574;2023-07-24T06:57:51;14.15;;;10.98;;
27428;SDS011;14881;48.092;11.574;2023-07-24T07:00:19;15.68;;;11.05;;
27428;SDS011;14881;48.092;11.574;2023-07-24T07:02:47;14.10;;;11.07;;
27428;SDS011;14881;48.092;11.574;2023-07-24T07:05:14;14.52;;;10.75;;
27428;SDS011;14881;48.092;11.574;2023-07-24T07:07:42;15.65;;;11.80;;
27428;SDS011;14881;48.092;11.574;2023-07-24T07:10:10;12.68;;;10.30;;
27428;SDS011;14881;48.092;11.574;2023-07-24T07:12:40;14.15;;;11.10;;
27428;SDS011;14881;48.092;11.574;2023-07-24T07:15:08;16.00;;;11.35;;
27428;SDS011;14881;48.092;11.574;2023-07-24T07:17:36;13.38;;;10.73;;
27428;SDS011;14881;48.092;11.574;2023-07-24T07:20:04;13.98;;;10.35;;
27428;SDS011;14881;48.092;11.574;2023-07-24T07:22:33;13.88;;;10.35;;
27428;SDS011;14881;48.092;11.574;2023-07-24T07:25:01;15.00;;;11.50;;
27428;SDS011;14881;48.092;11.574;2023-07-24T07:27:29;15.02;;;11.65;;
27428;SDS011;14881;48.092;11.574;2023-07-24T07:29:58;13.07;;;10.07;;
27428;SDS011;14881;48.092;11.574;2023-07-24T07:32:25;13.85;;;10.90;;
27428;SDS011;14881;48.092;11.574;2023-07-24T07:34:53;15.23;;;10.63;;
27428;SDS011;14881;48.092;11.574;2023-07-24T07:37:21;15.77;;;11.13;;
27428;SDS011;14881;48.092;11.574;2023-07-24T07:39:49;15.75;;;10.85;;
27428;SDS011;14881;48.092;11.574;2023-07-24T07:42:17;16.05;;;10.45;;
27428;SDS011;14881;48.092;11.574;2023-07-24T07:44:45;17.75;;;10.57;;
27428;SDS011;14881;48.092;11.574;2023-07-24T07:47:14;18.08;;;11.20;;
27428;SDS011;14881;48.092;11.574;2023-07-24T07:49:42;16.08;;;10.77;;
27428;SDS011;14881;48.092;11.574;2023-07-24T07:52:09;18.27;;;11.55;;
27428;SDS011;14881;48.092;11.574;2023-07-24T07:54:39;13.80;;;10.55;;
27428;SDS011;14881;48.092;11.574;2023-07-24T07:57:06;17.48;;;11.48;;
27428;SDS011;14881;48.092;11.574;2023-07-24T07:59:34;16.38;;;10.77;;
27428;SDS011;14881;48.092;11.574;2023-07-24T08:02:02;17.45;;;11.27;;
27428;SDS011;14881;48.092;11.574;2023-07-24T08:04:32;18.17;;;12.45;;
27428;SDS011;14881;48.092;11.574;2023-07-24T08:06:59;19.15;;;11.73;;
27428;SDS011;14881;48.092;11.574;2023-07-24T08:09:27;15.10;;;11.25;;
27428;SDS011;14881;48.092;11.574;2023-07-24T08:11:55;20.25;;;11.63;;
27428;SDS011;14881;48.092;11.574;2023-07-24T08:14:23;18.27;;;11.45;;
27428;SDS011;14881;48.092;11.574;2023-07-24T08:16:51;17.65;;;11.68;;
27428;SDS011;14881;48.092;11.574;2023-07-24T08:19:19;16.08;;;11.15;;
27428;SDS011;14881;48.092;11.574;2023-07-24T08:21:48;17.75;;;10.95;;
27428;SDS011;14881;48.092;11.574;2023-07-24T08:24:16;14.07;;;10.02;;
27428;SDS011;14881;48.092;11.574;2023-07-24T08:26:44;13.52;;;9.50;;
27428;SDS011;14881;48.092;11.574;2023-07-24T08:29:12;13.77;;;9.57;;
27428;SDS011;14881;48.092;11.574;2023-07-24T08:31:40;14.05;;;10.02;;
27428;SDS011;14881;48.092;11.574;2023-07-24T08:41:37;12.07;;;8.55;;
27428;SDS011;14881;48.092;11.574;2023-07-24T08:44:07;14.05;;;9.10;;
27428;SDS011;14881;48.092;11.574;2023-07-24T08:46:36;12.95;;;9.27;;
27428;SDS011;14881;48.092;11.574;2023-07-24T08:49:10;13.60;;;8.70;;
27428;SDS011;14881;48.092;11.574;2023-07-24T08:51:39;11.73;;;8.45;;
27428;SDS011;14881;48.092;11.574;2023-07-24T08:54:08;12.88;;;9.15;;
27428;SDS011;14881;48.092;11.574;2023-07-24T08:56:38;10.05;;;8.45;;
27428;SDS011;14881;48.092;11.574;2023-07-24T08:59:06;12.07;;;8.20;;
27428;SDS011;14881;48.092;11.574;2023-07-24T09:01:34;12.82;;;8.55;;
27428;SDS011;14881;48.092;11.574;2023-07-24T09:04:02;12.07;;;8.57;;
27428;SDS011;14881;48.092;11.574;2023-07-24T09:06:30;12.48;;;8.88;;
27428;SDS011;14881;48.092;11.574;2023-07-24T09:08:58;12.10;;;8.15;;
27428;SDS011;14881;48.092;11.574;2023-07-24T09:11:26;12.57;;;8.73;;
27428;SDS011;14881;48.092;11.574;2023-07-24T09:13:55;11.82;;;7.97;;
27428;SDS011;14881;48.092;11.574;2023-07-24T09:16:25;14.90;;;9.13;;
27428;SDS011;14881;48.092;11.574;2023-07-24T09:18:54;11.13;;;7.80;;
27428;SDS011;14881;48.092;11.574;2023-07-24T09:21:36;13.32;;;7.57;;
27428;SDS011;14881;48.092;11.574;2023-07-24T09:24:10;11.32;;;7.57;;
27428;SDS011;14881;48.092;11.574;2023-07-24T09:29:18;12.85;;;7.25;;
27428;SDS011;14881;48.092;11.574;2023-07-24T09:31:49;10.35;;;6.57;;
27428;SDS011;14881;48.092;11.574;2023-07-24T09:34:17;9.20;;;6.82;;
27428;SDS011;14881;48.092;11.574;2023-07-24T09:36:46;9.00;;;6.90;;
27428;SDS011;14881;48.092;11.574;2023-07-24T09:39:13;8.27;;;6.05;;
27428;SDS011;14881;48.092;11.574;2023-07-24T09:41:41;9.07;;;6.40;;
27428;SDS011;14881;48.092;11.574;2023-07-24T09:44:11;9.13;;;6.43;;
27428;SDS011;14881;48.092;11.574;2023-07-24T09:46:40;8.10;;;6.22;;
27428;SDS011;14881;48.092;11.574;2023-07-24T09:49:28;6.68;;;5.10;;
27428;SDS011;14881;48.092;11.574;2023-07-24T09:51:56;8.32;;;5.80;;
27428;SDS011;14881;48.092;11.574;2023-07-24T09:54:31;8.23;;;5.47;;
27428;SDS011;14881;48.092;11.574;2023-07-24T09:57:07;7.30;;;5.50;;
27428;SDS011;14881;48.092;11.574;2023-07-24T09:59:46;7.32;;;5.38;;
27428;SDS011;14881;48.092;11.574;2023-07-24T10:02:17;7.00;;;5.00;;
27428;SDS011;14881;48.092;11.574;2023-07-24T10:04:46;6.07;;;5.43;;
27428;SDS011;14881;48.092;11.574;2023-07-24T10:07:15;7.07;;;5.13;;
27428;SDS011;14881;48.092;11.574;2023-07-24T10:09:43;7.03;;;5.07;;
27428;SDS011;14881;48.092;11.574;2023-07-24T10:12:11;6.63;;;5.40;;
27428;SDS011;14881;48.092;11.574;2023-07-24T10:14:39;6.88;;;6.07;;
27428;SDS011;14881;48.092;11.574;2023-07-24T10:17:07;7.25;;;5.20;;
27428;SDS011;14881;48.092;11.574;2023-07-24T10:19:36;7.97;;;5.97;;
27428;SDS011;14881;48.092;11.574;2023-07-24T10:22:09;9.27;;;5.55;;
27428;SDS011;14881;48.092;11.574;2023-07-24T10:24:37;6.97;;;6.13;;
27428;SDS011;14881;48.092;11.574;2023-07-24T10:27:08;6.45;;;5.47;;
27428;SDS011;14881;48.092;11.574;2023-07-24T10:29:36;8.02;;;6.38;;
27428;SDS011;14881;48.092;11.574;2023-07-24T10:32:15;7.93;;;5.90;;
27428;SDS011;14881;48.092;11.574;2023-07-24T10:34:46;7.97;;;5.30;;
27428;SDS011;14881;48.092;11.574;2023-07-24T10:37:30;7.47;;;6.05;;
27428;SDS011;14881;48.092;11.574;2023-07-24T10:39:59;8.10;;;6.28;;
27428;SDS011;14881;48.092;11.574;2023-07-24T10:42:27;8.30;;;5.75;;
27428;SDS011;14881;48.092;11.574;2023-07-24T10:45:05;7.57;;;6.03;;
27428;SDS011;14881;48.092;11.574;2023-07-24T10:47:34;6.80;;;5.45;;
27428;SDS011;14881;48.092;11.574;2023-07-24T10:50:04;7.85;;;5.95;;
27428;SDS011;14881;48.092;11.574;2023-07-24T10:52:33;8.00;;;5.57;;
27428;SDS011;14881;48.092;11.574;2023-07-24T10:55:01;9.05;;;5.93;;
27428;SDS011;14881;48.092;11.574;2023-07-24T10:57:29;7.45;;;5.25;;
27428;SDS011;14881;48.092;11.574;2023-07-24T10:59:58;7.63;;;6.05;;
27428;SDS011;14881;48.092;11.574;2023-07-24T11:02:26;5.65;;;5.03;;
27428;SDS011;14881;48.092;11.574;2023-07-24T11:04:54;8.13;;;6.55;;
27428;SDS011;14881;48.092;11.574;2023-07-24T11:07:32;7.82;;;5.80;;
27428;SDS011;14881;48.092;11.574;2023-07-24T11:10:00;7.03;;;5.97;;
27428;SDS011;14881;48.092;11.574;2023-07-24T11:12:28;9.63;;;6.03;;
27428;SDS011;14881;48.092;11.574;2023-07-24T11:14:58;6.82;;;5.57;;
27428;SDS011;14881;48.092;11.574;2023-07-24T11:17:33;6.97;;;5.63;;
27428;SDS011;14881;48.092;11.574;2023-07-24T11:20:06;8.18;;;6.30;;
27428;SDS011;14881;48.092;11.574;2023-07-24T11:22:37;6.00;;;5.40;;
27428;SDS011;14881;48.092;11.574;2023-07-24T11:25:06;8.13;;;5.85;;
27428;SDS011;14881;48.092;11.574;2023-07-24T11:27:37;7.40;;;5.80;;
27428;SDS011;14881;48.092;11.574;2023-07-24T11:30:07;7.32;;;6.18;;
27428;SDS011;14881;48.092;11.574;2023-07-24T11:32:37;8.38;;;5.85;;
27428;SDS011;14881;48.092;11.574;2023-07-24T11:35:06;8.73;;;6.38;;
27428;SDS011;14881;48.092;11.574;2023-07-24T11:37:36;7.78;;;6.60;;
27428;SDS011;14881;48.092;11.574;2023-07-24T11:40:04;6.13;;;5.07;;
27428;SDS011;14881;48.092;11.574;2023-07-24T11:42:37;8.48;;;5.97;;
27428;SDS011;14881;48.092;11.574;2023-07-24T11:45:06;7.47;;;5.85;;
27428;SDS011;14881;48.092;11.574;2023-07-24T11:47:42;6.57;;;5.88;;
27428;SDS011;14881;48.092;11.574;2023-07-24T11:52:41;7.63;;;5.70;;
27428;SDS011;14881;48.092;11.574;2023-07-24T11:55:11;8.10;;;6.07;;
27428;SDS011;14881;48.092;11.574;2023-07-24T11:57:39;7.50;;;5.88;;
27428;SDS011;14881;48.092;11.574;2023-07-24T12:00:17;7.30;;;6.07;;
27428;SDS011;14881;48.092;11.574;2023-07-24T12:02:46;5.97;;;5.20;;
27428;SDS011;14881;48.092;11.574;2023-07-24T12:05:14;7.15;;;5.38;;
27428;SDS011;14881;48.092;11.574;2023-07-24T12:07:43;11.35;;;5.78;;
27428;SDS011;14881;48.092;11.574;2023-07-24T12:10:13;8.63;;;5.95;;
27428;SDS011;14881;48.092;11.574;2023-07-24T12:12:51;10.05;;;5.68;;
27428;SDS011;14881;48.092;11.574;2023-07-24T12:15:21;6.65;;;5.47;;
27428;SDS011;14881;48.092;11.574;2023-07-24T12:17:49;6.53;;;5.32;;
27428;SDS011;14881;48.092;11.574;2023-07-24T12:20:17;7.32;;;5.95;;
27428;SDS011;14881;48.092;11.574;2023-07-24T12:22:46;7.03;;;6.00;;
27428;SDS011;14881;48.092;11.574;2023-07-24T12:25:14;7.13;;;5.75;;
27428;SDS011;14881;48.092;11.574;2023-07-24T12:27:42;7.00;;;5.40;;
27428;SDS011;14881;48.092;11.574;2023-07-24T12:30:10;6.57;;;5.63;;
27428;SDS011;14881;48.092;11.574;2023-07-24T12:32:38;8.25;;;5.88;;
27428;SDS011;14881;48.092;11.574;2023-07-24T12:35:07;6.55;;;5.50;;
27428;SDS011;14881;48.092;11.574;2023-07-24T12:37:35;7.47;;;5.20;;
27428;SDS011;14881;48.092;11.574;2023-07-24T12:40:07;10.15;;;5.65;;
27428;SDS011;14881;48.092;11.574;2023-07-24T12:42:36;9.57;;;5.32;;
27428;SDS011;14881;48.092;11.574;2023-07-24T12:45:04;8.88;;;6.03;;
27428;SDS011;14881;48.092;11.574;2023-07-24T12:47:33;7.00;;;5.28;;
27428;SDS011;14881;48.092;11.574;2023-07-24T12:50:00;8.95;;;6.38;;
27428;SDS011;14881;48.092;11.574;2023-07-24T12:52:33;8.23;;;6.68;;
27428;SDS011;14881;48.092;11.574;2023-07-24T12:55:00;7.97;;;6.15;;
27428;SDS011;14881;48.092;11.574;2023-07-24T12:57:30;8.88;;;6.40;;
27428;SDS011;14881;48.092;11.574;2023-07-24T12:59:58;9.20;;;6.10;;
27428;SDS011;14881;48.092;11.574;2023-07-24T13:02:25;9.10;;;6.22;;
27428;SDS011;14881;48.092;11.574;2023-07-24T13:04:53;8.55;;;6.43;;
27428;SDS011;14881;48.092;11.574;2023-07-24T13:07:21;9.68;;;6.65;;
27428;SDS011;14881;48.092;11.574;2023-07-24T13:09:49;9.95;;;5.95;;
27428;SDS011;14881;48.092;11.574;2023-07-24T13:12:17;10.73;;;6.28;;
27428;SDS011;14881;48.092;11.574;2023-07-24T13:14:46;9.32;;;6.68;;
27428;SDS011;14881;48.092;11.574;2023-07-24T13:17:14;8.55;;;6.68;;
27428;SDS011;14881;48.092;11.574;2023-07-24T13:19:41;9.55;;;6.68;;
27428;SDS011;14881;48.092;11.574;2023-07-24T13:22:09;12.48;;;6.97;;
27428;SDS011;14881;48.092;11.574;2023-07-24T13:24:37;10.02;;;7.28;;
27428;SDS011;14881;48.092;11.574;2023-07-24T13:27:05;8.98;;;6.45;;
27428;SDS011;14881;48.092;11.574;2023-07-24T13:29:33;8.48;;;6.25;;
27428;SDS011;14881;48.092;11.574;2023-07-24T13:32:02;9.88;;;5.88;;
27428;SDS011;14881;48.092;11.574;2023-07-24T13:34:30;11.82;;;5.90;;
27428;SDS011;14881;48.092;11.574;2023-07-24T13:36:58;7.78;;;6.18;;
27428;SDS011;14881;48.092;11.574;2023-07-24T13:39:26;10.63;;;6.35;;
27428;SDS011;14881;48.092;11.574;2023-07-24T13:41:55;9.63;;;6.75;;
27428;SDS011;14881;48.092;11.574;2023-07-24T13:44:22;9.75;;;6.85;;
27428;SDS011;14881;48.092;11.574;2023-07-24T13:46:50;6.68;;;5.53;;
27428;SDS011;14881;48.092;11.574;2023-07-24T13:49:19;8.18;;;6.40;;
27428;SDS011;14881;48.092;11.574;2023-07-24T13:51:47;9.68;;;6.25;;
27428;SDS011;14881;48.092;11.574;2023-07-24T13:54:15;9.27;;;6.00;;
27428;SDS011;14881;48.092;11.574;2023-07-24T13:56:43;7.40;;;5.82;;
27428;SDS011;14881;48.092;11.574;2023-07-24T13:59:11;7.20;;;5.38;;
27428;SDS011;14881;48.092;11.574;2023-07-24T14:01:39;5.32;;;4.25;;
27428;SDS011;14881;48.092;11.574;2023-07-24T14:04:08;5.60;;;4.30;;
27428;SDS011;14881;48.092;11.574;2023-07-24T14:06:39;5.40;;;4.25;;
27428;SDS011;14881;48.092;11.574;2023-07-24T14:09:07;6.10;;;3.88;;
27428;SDS011;14881;48.092;11.574;2023-07-24T14:11:35;9.10;;;4.10;;
27428;SDS011;14881;48.092;11.574;2023-07-24T14:14:03;6.55;;;4.53;;
27428;SDS011;14881;48.092;11.574;2023-07-24T14:16:32;5.13;;;4.07;;
27428;SDS011;14881;48.092;11.574;2023-07-24T14:19:00;5.40;;;4.88;;
27428;SDS011;14881;48.092;11.574;2023-07-24T14:21:28;6.00;;;4.57;;
27428;SDS011;14881;48.092;11.574;2023-07-24T14:23:58;6.85;;;4.90;;
27428;SDS011;14881;48.092;11.574;2023-07-24T14:26:26;7.95;;;5.35;;
27428;SDS011;14881;48.092;11.574;2023-07-24T14:28:54;7.47;;;4.93;;
27428;SDS011;14881;48.092;11.574;2023-07-24T14:31:22;7.50;;;4.93;;
27428;SDS011;14881;48.092;11.574;2023-07-24T14:33:50;5.32;;;4.82;;
27428;SDS011;14881;48.092;11.574;2023-07-24T14:36:18;7.40;;;4.70;;
27428;SDS011;14881;48.092;11.574;2023-07-24T14:38:46;5.18;;;3.83;;
27428;SDS011;14881;48.092;11.574;2023-07-24T14:41:15;3.95;;;3.35;;